Burke, New York
Current Conditions -  °F | °C
As of 7:53 PM on Wednesday 17 Dec 2014 (Local Time) from KMSS Reporting Station
Light Rain Light Rain  
Wind Chill: 35°   Ceiling: 300
Heat Index: 35°   Visibility: 5mi
Dew Point: 34°   Wind: 3mph
Humidity: 96%   Direction: 260°W
Pressure: 29.8"   Gusts: NA
Location:  44.9°N, 74.17°W
Report Text: KMSS 180053Z AUTO 26003KT 5SM -RA BR OVC003 02/01 A2980 RMK AO2 UPB04E19RAB19 SLP097 P0000 T00170011
Loading
Personal Weather Stations






























Interactive Weather Map New forecast layout! Learn more

10-Day Weather Forecast

Advertisements
Track Severe Weather on mobile